createdAt,value
2019-05-26T00:00:08.302Z,17.23
2019-05-26T00:02:37.791Z,17.19
2019-05-26T00:05:10.427Z,17.19
2019-05-26T00:07:39.782Z,17.18
2019-05-26T00:10:10.054Z,17.24
2019-05-26T00:12:39.649Z,17.26
2019-05-26T00:15:10.317Z,17.26
2019-05-26T00:17:39.696Z,17.26
2019-05-26T00:20:09.769Z,17.25
2019-05-26T00:22:39.067Z,17.22
2019-05-26T00:25:09.007Z,17.20
2019-05-26T00:27:38.545Z,17.16
2019-05-26T00:30:09.098Z,17.13
2019-05-26T00:32:38.479Z,17.11
2019-05-26T00:35:08.839Z,17.09
2019-05-26T00:37:49.215Z,17.10
2019-05-26T00:40:10.476Z,17.14
2019-05-26T00:42:39.815Z,17.13
2019-05-26T00:45:09.681Z,17.07
2019-05-26T00:47:39.124Z,17.06
2019-05-26T00:50:08.905Z,17.08
2019-05-26T00:52:39.059Z,17.08
2019-05-26T00:55:09.481Z,17.08
2019-05-26T00:57:38.849Z,17.09
2019-05-26T01:00:09.997Z,17.07
2019-05-26T01:02:39.407Z,17.05
2019-05-26T01:05:09.773Z,17.01
2019-05-26T01:07:39.110Z,17.01
2019-05-26T01:10:10.427Z,16.98
2019-05-26T01:12:39.799Z,16.93
2019-05-26T01:15:09.850Z,16.86
2019-05-26T01:17:39.167Z,16.85
2019-05-26T01:20:09.231Z,16.86
2019-05-26T01:22:38.734Z,16.86
2019-05-26T01:25:08.616Z,16.83
2019-05-26T01:27:37.904Z,16.80
2019-05-26T01:30:08.957Z,16.79
2019-05-26T01:32:38.443Z,16.79
2019-05-26T01:35:08.368Z,16.82
2019-05-26T01:37:39.002Z,16.85
2019-05-26T01:40:09.102Z,16.85
2019-05-26T01:42:38.555Z,16.87
2019-05-26T01:45:08.711Z,16.89
2019-05-26T01:47:38.126Z,16.90
2019-05-26T01:50:08.307Z,16.90
2019-05-26T01:52:37.846Z,16.87
2019-05-26T01:55:07.251Z,16.81
2019-05-26T01:57:36.812Z,16.76
2019-05-26T02:00:08.565Z,16.73
2019-05-26T02:02:37.942Z,16.68
2019-05-26T02:05:07.613Z,16.64
2019-05-26T02:07:36.853Z,16.61
2019-05-26T02:10:07.637Z,16.59
2019-05-26T02:12:36.985Z,16.59
2019-05-26T02:15:08.113Z,16.64
2019-05-26T02:17:37.497Z,16.67
2019-05-26T02:20:08.403Z,16.72
2019-05-26T02:22:37.759Z,16.74
2019-05-26T02:25:10.403Z,16.74
2019-05-26T02:27:39.762Z,16.77
2019-05-26T02:30:10.238Z,16.76
2019-05-26T02:32:39.634Z,16.73
2019-05-26T02:35:10.901Z,16.69
2019-05-26T02:37:40.222Z,16.61
2019-05-26T02:40:12.443Z,16.56
2019-05-26T02:42:41.731Z,16.52
2019-05-26T02:45:16.083Z,16.53
2019-05-26T02:47:46.999Z,16.52
2019-05-26T02:50:17.668Z,16.58
2019-05-26T02:52:47.060Z,16.64
2019-05-26T02:55:17.330Z,16.65
2019-05-26T02:57:46.789Z,16.61
2019-05-26T03:00:18.439Z,16.55
2019-05-26T03:02:47.825Z,16.51
2019-05-26T03:05:17.581Z,16.49
2019-05-26T03:07:47.529Z,16.44
2019-05-26T03:10:16.895Z,16.42
2019-05-26T03:12:48.826Z,16.33
2019-05-26T03:15:18.728Z,16.25
2019-05-26T03:17:50.041Z,16.19
2019-05-26T03:20:19.521Z,16.15
2019-05-26T03:22:54.665Z,16.15
2019-05-26T03:25:24.016Z,16.14
2019-05-26T03:27:53.443Z,16.15
2019-05-26T03:30:22.897Z,16.15
2019-05-26T03:32:52.270Z,16.16
2019-05-26T03:35:21.744Z,16.15
2019-05-26T03:37:51.123Z,16.14
2019-05-26T03:40:20.498Z,16.18
2019-05-26T03:42:50.044Z,16.21
2019-05-26T03:45:25.167Z,16.28
2019-05-26T03:47:54.522Z,16.34
2019-05-26T03:50:23.821Z,16.34
2019-05-26T03:52:53.291Z,16.31
2019-05-26T03:55:22.570Z,16.28
2019-05-26T03:57:51.882Z,16.21
2019-05-26T04:00:21.490Z,16.18
2019-05-26T04:02:50.851Z,16.23
2019-05-26T04:05:20.199Z,16.23
2019-05-26T04:07:49.591Z,16.32
2019-05-26T04:10:19.337Z,16.39
2019-05-26T04:12:48.727Z,16.42
2019-05-26T04:15:18.391Z,16.43
2019-05-26T04:17:47.683Z,16.49
2019-05-26T04:20:17.159Z,16.57
2019-05-26T04:22:46.585Z,16.69
2019-05-26T04:25:16.241Z,16.79
2019-05-26T04:27:45.648Z,16.90
2019-05-26T04:30:15.059Z,17.06
2019-05-26T04:32:44.431Z,17.30
2019-05-26T04:35:13.805Z,17.58
2019-05-26T04:37:43.199Z,17.82
2019-05-26T04:40:25.834Z,18.06
2019-05-26T04:42:44.580Z,18.29
2019-05-26T04:45:13.993Z,18.44
2019-05-26T04:47:43.451Z,18.42
2019-05-26T04:50:13.016Z,18.35
2019-05-26T04:52:42.374Z,18.36
2019-05-26T04:55:12.014Z,18.55
2019-05-26T04:57:41.359Z,18.85
2019-05-26T05:00:11.060Z,19.11
2019-05-26T05:02:40.353Z,19.26
2019-05-26T05:05:10.614Z,19.41
2019-05-26T05:07:40.047Z,19.60
2019-05-26T05:10:10.047Z,19.75
2019-05-26T05:12:39.479Z,19.99
2019-05-26T05:15:09.258Z,20.31
2019-05-26T05:17:38.631Z,20.63
2019-05-26T05:20:08.705Z,21.02
2019-05-26T05:22:38.094Z,21.37
2019-05-26T05:25:14.936Z,21.63
2019-05-26T05:27:41.793Z,21.90
2019-05-26T05:30:13.108Z,22.21
2019-05-26T05:32:42.416Z,22.41
2019-05-26T05:35:12.260Z,22.48
2019-05-26T05:37:41.662Z,22.76
2019-05-26T05:40:11.821Z,23.00
2019-05-26T05:42:41.364Z,23.19
2019-05-26T05:45:12.513Z,23.39
2019-05-26T05:47:41.895Z,23.52
2019-05-26T05:50:13.193Z,23.70
2019-05-26T05:52:42.513Z,23.82
2019-05-26T05:55:12.343Z,24.10
2019-05-26T05:57:41.690Z,24.10
2019-05-26T06:00:12.300Z,24.10
2019-05-26T06:02:41.711Z,24.12
2019-05-26T06:05:11.458Z,24.11
2019-05-26T06:07:40.852Z,24.23
2019-05-26T06:10:11.109Z,24.34
2019-05-26T06:12:40.458Z,24.38
2019-05-26T06:15:12.645Z,24.28
2019-05-26T06:17:42.538Z,24.39
2019-05-26T06:20:12.708Z,24.58
2019-05-26T06:22:42.023Z,24.86
2019-05-26T06:25:12.541Z,24.85
2019-05-26T06:27:41.709Z,24.77
2019-05-26T06:30:11.709Z,24.77
2019-05-26T06:32:40.980Z,24.77
2019-05-26T06:35:10.736Z,24.90
2019-05-26T06:37:40.134Z,25.04
2019-05-26T06:40:14.819Z,25.35
2019-05-26T06:42:44.220Z,25.67
2019-05-26T06:45:14.814Z,25.80
2019-05-26T06:47:44.171Z,25.75
2019-05-26T06:50:14.325Z,25.75
2019-05-26T06:52:43.655Z,25.80
2019-05-26T06:55:13.509Z,25.85
2019-05-26T06:57:42.986Z,25.84
2019-05-26T07:00:13.129Z,25.62
2019-05-26T07:02:42.476Z,25.67
2019-05-26T07:05:12.225Z,25.71
2019-05-26T07:07:41.482Z,25.84
2019-05-26T07:10:11.035Z,25.79
2019-05-26T07:12:40.391Z,26.02
2019-05-26T07:15:12.411Z,26.05
2019-05-26T07:17:41.787Z,26.03
2019-05-26T07:20:11.929Z,26.10
2019-05-26T07:22:41.296Z,26.04
2019-05-26T07:25:18.866Z,26.09
2019-05-26T07:27:48.157Z,26.29
2019-05-26T07:30:18.240Z,26.34
2019-05-26T07:32:47.508Z,26.48
2019-05-26T07:35:16.884Z,26.66
2019-05-26T07:37:46.177Z,26.54
2019-05-26T07:40:16.266Z,26.34
2019-05-26T07:42:45.565Z,25.99
2019-05-26T07:45:15.742Z,26.10
2019-05-26T07:47:45.909Z,26.45
2019-05-26T07:50:15.569Z,26.69
2019-05-26T07:52:45.196Z,26.70
2019-05-26T07:55:18.487Z,26.49
2019-05-26T07:57:47.844Z,26.82
2019-05-26T08:00:17.251Z,27.37
2019-05-26T08:02:46.546Z,27.79
2019-05-26T08:05:15.963Z,27.54
2019-05-26T08:07:45.510Z,27.78
2019-05-26T08:10:15.051Z,27.87
2019-05-26T08:12:44.409Z,27.56
2019-05-26T08:15:14.384Z,27.89
2019-05-26T08:17:43.804Z,27.93
2019-05-26T08:20:14.915Z,27.99
2019-05-26T08:22:44.310Z,28.03
2019-05-26T08:25:23.868Z,28.16
2019-05-26T08:27:53.250Z,28.03
2019-05-26T08:30:24.054Z,28.12
2019-05-26T08:32:53.283Z,28.07
2019-05-26T08:35:22.666Z,28.41
2019-05-26T08:37:52.035Z,28.96
2019-05-26T08:40:21.334Z,29.13
2019-05-26T08:42:52.337Z,29.76
2019-05-26T08:45:22.922Z,29.87
2019-05-26T08:47:53.270Z,29.74
2019-05-26T08:50:23.737Z,30.03
2019-05-26T08:52:53.120Z,30.44
2019-05-26T08:55:24.362Z,29.67
2019-05-26T08:57:53.764Z,29.56
2019-05-26T09:00:24.727Z,30.04
2019-05-26T09:02:54.151Z,30.38
2019-05-26T09:05:23.552Z,30.85
2019-05-26T09:07:52.888Z,30.56
2019-05-26T09:10:28.285Z,30.36
2019-05-26T09:13:01.113Z,30.03
2019-05-26T09:15:28.855Z,29.79
2019-05-26T09:17:58.200Z,30.18
2019-05-26T09:20:28.219Z,30.59
2019-05-26T09:22:57.589Z,30.76
2019-05-26T09:25:26.930Z,30.26
2019-05-26T09:27:56.376Z,30.45
2019-05-26T09:30:25.844Z,30.88
2019-05-26T09:32:55.211Z,31.50
2019-05-26T09:35:24.810Z,31.69
2019-05-26T09:37:54.280Z,31.41
2019-05-26T09:40:23.765Z,31.56
2019-05-26T09:42:53.268Z,31.38
2019-05-26T09:45:23.074Z,31.00
2019-05-26T09:47:52.430Z,30.92
2019-05-26T09:50:21.874Z,30.75
2019-05-26T09:52:51.222Z,31.28
2019-05-26T09:55:20.673Z,32.14
2019-05-26T09:57:50.086Z,32.12
2019-05-26T10:00:19.918Z,32.82
2019-05-26T10:02:49.348Z,32.54
2019-05-26T10:05:18.743Z,32.82
2019-05-26T10:07:48.099Z,33.15
2019-05-26T10:10:19.439Z,32.67
2019-05-26T10:12:49.199Z,32.29
2019-05-26T10:15:19.252Z,31.41
2019-05-26T10:17:48.626Z,31.69
2019-05-26T10:20:18.689Z,31.18
2019-05-26T10:22:48.054Z,31.33
2019-05-26T10:25:17.454Z,31.38
2019-05-26T10:27:46.952Z,30.98
2019-05-26T10:30:17.124Z,31.29
2019-05-26T10:32:47.085Z,31.37
2019-05-26T10:35:16.481Z,31.60
2019-05-26T10:37:45.944Z,31.62
2019-05-26T10:40:17.029Z,31.56
2019-05-26T10:42:47.082Z,31.01
2019-05-26T10:45:17.134Z,29.92
2019-05-26T10:47:46.534Z,29.88
2019-05-26T10:50:17.241Z,30.62
2019-05-26T10:52:46.622Z,30.95
2019-05-26T10:55:36.688Z,30.96
2019-05-26T10:58:06.609Z,31.38
2019-05-26T11:00:35.990Z,30.97
2019-05-26T11:03:06.305Z,31.08
2019-05-26T11:05:36.516Z,31.08
2019-05-26T11:08:05.922Z,30.97
2019-05-26T11:10:35.380Z,30.87
2019-05-26T11:13:05.159Z,30.05
2019-05-26T11:15:34.647Z,30.13
2019-05-26T11:18:04.271Z,30.66
2019-05-26T11:20:33.810Z,30.87
2019-05-26T11:23:03.256Z,30.51
2019-05-26T11:25:38.919Z,30.88
2019-05-26T11:28:08.578Z,30.21
2019-05-26T11:30:38.059Z,30.30
2019-05-26T11:33:07.470Z,30.54
2019-05-26T11:35:36.936Z,30.07
2019-05-26T11:38:06.429Z,30.36
2019-05-26T11:40:35.934Z,30.44
2019-05-26T11:43:16.406Z,30.56
2019-05-26T11:45:36.702Z,30.83
2019-05-26T11:48:06.078Z,30.61
2019-05-26T11:50:35.702Z,30.61
2019-05-26T11:53:05.128Z,30.59
2019-05-26T11:55:40.341Z,31.12
2019-05-26T11:58:10.094Z,31.43
2019-05-26T12:00:39.660Z,31.47
2019-05-26T12:03:09.045Z,31.66
2019-05-26T12:05:38.427Z,31.83
2019-05-26T12:08:07.990Z,32.14
2019-05-26T12:10:37.349Z,32.35
2019-05-26T12:13:06.901Z,32.72
2019-05-26T12:15:37.199Z,32.81
2019-05-26T12:18:06.715Z,32.97
2019-05-26T12:20:36.154Z,33.72
2019-05-26T12:23:05.620Z,33.79
2019-05-26T12:25:34.999Z,33.83
2019-05-26T12:28:04.481Z,34.30
2019-05-26T12:30:33.892Z,34.53
2019-05-26T12:33:03.335Z,33.80
2019-05-26T12:35:46.681Z,33.37
2019-05-26T12:38:16.349Z,33.24
2019-05-26T12:40:46.200Z,32.30
2019-05-26T12:43:15.634Z,32.83
2019-05-26T12:45:45.011Z,33.43
2019-05-26T12:48:14.439Z,34.03
2019-05-26T12:50:43.901Z,33.48
2019-05-26T12:53:13.374Z,33.49
2019-05-26T12:55:42.798Z,33.20
2019-05-26T12:58:12.173Z,33.23
2019-05-26T13:00:48.857Z,34.03
2019-05-26T13:03:12.635Z,33.99
2019-05-26T13:05:42.985Z,34.44
2019-05-26T13:08:12.393Z,33.50
2019-05-26T13:10:41.791Z,33.39
2019-05-26T13:13:11.073Z,33.55
2019-05-26T13:15:40.432Z,34.08
2019-05-26T13:18:09.848Z,34.48
2019-05-26T13:20:39.319Z,34.43
2019-05-26T13:23:08.807Z,34.59
2019-05-26T13:25:43.989Z,33.11
2019-05-26T13:28:13.272Z,32.72
2019-05-26T13:30:42.641Z,33.09
2019-05-26T13:33:12.096Z,33.81
2019-05-26T13:35:41.516Z,33.64
2019-05-26T13:38:11.025Z,33.23
2019-05-26T13:40:40.465Z,32.60
2019-05-26T13:43:09.909Z,32.35
2019-05-26T13:45:39.287Z,33.03
2019-05-26T13:48:08.695Z,32.92
2019-05-26T13:50:38.078Z,33.28
2019-05-26T13:53:07.451Z,33.35
2019-05-26T13:55:49.019Z,33.14
2019-05-26T13:58:18.411Z,32.91
2019-05-26T14:00:47.779Z,32.51
2019-05-26T14:03:17.214Z,32.49
2019-05-26T14:05:46.667Z,32.63
2019-05-26T14:08:15.957Z,33.24
2019-05-26T14:10:45.368Z,33.41
2019-05-26T14:13:14.738Z,33.35
2019-05-26T14:15:44.104Z,32.84
2019-05-26T14:18:14.849Z,32.49
2019-05-26T14:20:45.908Z,32.21
2019-05-26T14:23:15.325Z,32.20
2019-05-26T14:25:44.737Z,32.42
2019-05-26T14:28:14.169Z,32.50
2019-05-26T14:30:43.620Z,32.14
2019-05-26T14:33:13.027Z,31.73
2019-05-26T14:35:42.505Z,31.94
2019-05-26T14:38:11.940Z,31.90
2019-05-26T14:40:49.372Z,31.75
2019-05-26T14:43:18.725Z,31.28
2019-05-26T14:45:58.602Z,31.52
2019-05-26T14:48:28.158Z,31.37
2019-05-26T14:50:57.740Z,31.17
2019-05-26T14:53:27.090Z,31.01
2019-05-26T14:55:56.406Z,30.84
2019-05-26T14:58:26.268Z,30.84
2019-05-26T15:00:55.736Z,30.74
2019-05-26T15:03:25.182Z,30.53
2019-05-26T15:06:05.473Z,30.14
2019-05-26T15:08:25.930Z,29.98
2019-05-26T15:10:55.291Z,29.86
2019-05-26T15:13:24.747Z,29.56
2019-05-26T15:16:08.795Z,29.38
2019-05-26T15:18:25.288Z,29.41
2019-05-26T15:20:56.141Z,29.28
2019-05-26T15:23:25.724Z,29.38
2019-05-26T15:25:55.160Z,29.48
2019-05-26T15:28:24.525Z,29.43
2019-05-26T15:30:54.002Z,28.96
2019-05-26T15:33:23.460Z,28.95
2019-05-26T15:35:52.795Z,28.80
2019-05-26T15:38:22.449Z,28.79
2019-05-26T15:40:54.899Z,28.91
2019-05-26T15:43:24.413Z,28.92
2019-05-26T15:45:53.932Z,28.89
2019-05-26T15:48:23.542Z,28.83
2019-05-26T15:50:53.051Z,28.73
2019-05-26T15:53:22.335Z,28.63
2019-05-26T15:55:51.620Z,28.59
2019-05-26T15:58:21.160Z,28.61
2019-05-26T16:00:50.562Z,28.54
2019-05-26T16:03:19.936Z,28.43
2019-05-26T16:05:49.388Z,28.36
2019-05-26T16:08:18.891Z,28.24
2019-05-26T16:11:00.586Z,28.29
2019-05-26T16:13:30.101Z,28.19
2019-05-26T16:15:59.504Z,27.97
2019-05-26T16:18:28.848Z,27.79
2019-05-26T16:21:03.024Z,27.73
2019-05-26T16:23:29.369Z,27.66
2019-05-26T16:25:59.108Z,27.51
2019-05-26T16:28:28.583Z,27.39
2019-05-26T16:30:58.028Z,27.07
2019-05-26T16:33:27.397Z,26.95
2019-05-26T16:35:57.796Z,27.01
2019-05-26T16:38:27.172Z,26.95
2019-05-26T16:40:58.261Z,26.98
2019-05-26T16:43:27.724Z,26.94
2019-05-26T16:45:57.512Z,26.83
2019-05-26T16:48:27.183Z,26.80
2019-05-26T16:50:56.785Z,26.78
2019-05-26T16:53:26.369Z,26.67
2019-05-26T16:55:55.761Z,26.55
2019-05-26T16:58:25.190Z,26.31
2019-05-26T17:00:54.479Z,26.18
2019-05-26T17:03:23.981Z,26.12
2019-05-26T17:06:07.048Z,26.02
2019-05-26T17:08:24.917Z,26.01
2019-05-26T17:10:56.022Z,26.00
2019-05-26T17:13:26.075Z,25.94
2019-05-26T17:15:55.909Z,25.87
2019-05-26T17:18:25.519Z,25.82
2019-05-26T17:20:55.016Z,25.75
2019-05-26T17:23:24.832Z,25.67
2019-05-26T17:25:54.672Z,25.63
2019-05-26T17:28:24.165Z,25.63
2019-05-26T17:30:53.701Z,25.61
2019-05-26T17:33:23.255Z,25.60
2019-05-26T17:35:52.726Z,25.56
2019-05-26T17:38:22.043Z,25.54
2019-05-26T17:40:51.503Z,25.49
2019-05-26T17:43:20.968Z,25.47
2019-05-26T17:45:50.577Z,25.45
2019-05-26T17:48:20.095Z,25.40
2019-05-26T17:50:49.550Z,25.37
2019-05-26T17:53:18.950Z,25.35
2019-05-26T17:56:04.696Z,25.29
2019-05-26T17:58:34.155Z,25.25
2019-05-26T18:01:03.796Z,25.20
2019-05-26T18:03:33.275Z,25.18
2019-05-26T18:06:02.719Z,25.12
2019-05-26T18:08:35.919Z,25.10
2019-05-26T18:11:04.593Z,25.07
2019-05-26T18:13:34.189Z,25.05
2019-05-26T18:16:03.925Z,25.01
2019-05-26T18:18:33.415Z,24.97
2019-05-26T18:21:02.962Z,24.93
2019-05-26T18:23:32.540Z,24.90
2019-05-26T18:26:01.946Z,24.88
2019-05-26T18:28:31.317Z,24.81
2019-05-26T18:31:00.621Z,24.73
2019-05-26T18:33:30.238Z,24.71
2019-05-26T18:35:59.705Z,24.66
2019-05-26T18:38:29.080Z,24.64
2019-05-26T18:41:10.358Z,24.60
2019-05-26T18:43:39.938Z,24.54
2019-05-26T18:46:09.298Z,24.55
2019-05-26T18:48:38.745Z,24.51
2019-05-26T18:51:08.175Z,24.49
2019-05-26T18:53:37.607Z,24.46
2019-05-26T18:56:06.974Z,24.43
2019-05-26T18:58:36.678Z,24.42
2019-05-26T19:01:06.950Z,24.40
2019-05-26T19:03:36.400Z,24.35
2019-05-26T19:06:05.943Z,24.31
2019-05-26T19:08:35.360Z,24.29
2019-05-26T19:11:05.089Z,24.27
2019-05-26T19:13:35.573Z,24.27
2019-05-26T19:16:05.452Z,24.25
2019-05-26T19:18:34.834Z,24.22
2019-05-26T19:21:04.866Z,24.19
2019-05-26T19:23:38.019Z,24.17
2019-05-26T19:26:15.711Z,24.16
2019-05-26T19:28:45.205Z,24.12
2019-05-26T19:31:14.840Z,24.14
2019-05-26T19:33:44.210Z,24.17
2019-05-26T19:36:13.848Z,24.12
2019-05-26T19:38:43.226Z,24.10
2019-05-26T19:41:12.880Z,24.11
2019-05-26T19:43:42.491Z,24.04
2019-05-26T19:46:13.856Z,23.94
2019-05-26T19:48:43.471Z,23.89
2019-05-26T19:51:13.003Z,23.87
2019-05-26T19:53:42.352Z,23.84
2019-05-26T19:56:15.090Z,23.80
2019-05-26T19:58:44.533Z,23.76
2019-05-26T20:01:13.846Z,23.66
2019-05-26T20:03:44.129Z,23.62
2019-05-26T20:06:13.648Z,23.62
2019-05-26T20:08:43.027Z,23.53
2019-05-26T20:11:12.441Z,23.46
2019-05-26T20:13:41.888Z,23.42
2019-05-26T20:16:11.287Z,23.36
2019-05-26T20:18:40.693Z,23.35
2019-05-26T20:21:10.096Z,23.32
2019-05-26T20:23:39.425Z,23.27
2019-05-26T20:26:21.167Z,23.21
2019-05-26T20:28:50.971Z,23.17
2019-05-26T20:31:20.429Z,23.12
2019-05-26T20:33:50.043Z,23.05
2019-05-26T20:36:19.433Z,23.00
2019-05-26T20:38:48.818Z,23.01
2019-05-26T20:41:18.234Z,22.98
2019-05-26T20:43:47.623Z,22.92
2019-05-26T20:46:17.130Z,22.78
2019-05-26T20:48:46.821Z,22.62
2019-05-26T20:51:16.188Z,22.41
2019-05-26T20:53:45.801Z,22.33
2019-05-26T20:56:15.279Z,22.19
2019-05-26T20:58:44.901Z,22.09
2019-05-26T21:01:14.735Z,22.00
2019-05-26T21:03:44.918Z,21.80
2019-05-26T21:06:15.043Z,21.74
2019-05-26T21:08:44.415Z,21.56
2019-05-26T21:11:15.456Z,21.49
2019-05-26T21:13:44.982Z,21.46
2019-05-26T21:16:14.359Z,21.36
2019-05-26T21:18:43.771Z,21.33
2019-05-26T21:21:13.146Z,21.32
2019-05-26T21:23:42.540Z,21.31
2019-05-26T21:26:12.104Z,21.29
2019-05-26T21:28:41.346Z,21.25
2019-05-26T21:31:10.794Z,21.19
2019-05-26T21:33:40.308Z,21.18
2019-05-26T21:36:10.022Z,21.20
2019-05-26T21:38:39.416Z,21.22
2019-05-26T21:41:26.871Z,21.26
2019-05-26T21:43:56.462Z,21.18
2019-05-26T21:46:25.937Z,21.16
2019-05-26T21:48:55.369Z,21.13
2019-05-26T21:51:25.669Z,21.13
2019-05-26T21:53:55.056Z,21.11
2019-05-26T21:56:30.544Z,21.06
2019-05-26T21:58:59.955Z,21.04
2019-05-26T22:01:29.817Z,21.02
2019-05-26T22:04:05.015Z,21.06
2019-05-26T22:06:35.984Z,21.00
2019-05-26T22:09:07.932Z,20.96
2019-05-26T22:11:37.387Z,20.94
2019-05-26T22:14:06.789Z,20.96
2019-05-26T22:16:37.949Z,20.97
2019-05-26T22:19:07.575Z,20.90
2019-05-26T22:21:37.062Z,20.88
2019-05-26T22:24:06.513Z,20.91
2019-05-26T22:26:36.061Z,20.94
2019-05-26T22:29:05.557Z,20.95
2019-05-26T22:31:35.796Z,20.95
2019-05-26T22:34:05.441Z,20.92
2019-05-26T22:36:35.418Z,20.85
2019-05-26T22:39:06.665Z,20.81
2019-05-26T22:41:36.018Z,20.78
2019-05-26T22:44:05.400Z,20.78
2019-05-26T22:46:34.926Z,20.77
2019-05-26T22:49:04.523Z,20.76
2019-05-26T22:51:33.956Z,20.78
2019-05-26T22:54:03.284Z,20.80
2019-05-26T22:56:32.690Z,20.80
2019-05-26T22:59:02.056Z,20.80
2019-05-26T23:01:31.571Z,20.78
2019-05-26T23:04:03.239Z,20.78
2019-05-26T23:06:32.129Z,20.78
2019-05-26T23:09:01.751Z,20.76
2019-05-26T23:11:31.172Z,20.76
2019-05-26T23:14:00.558Z,20.74
2019-05-26T23:16:29.890Z,20.70
2019-05-26T23:18:59.470Z,20.69
2019-05-26T23:21:28.841Z,20.65
2019-05-26T23:23:58.209Z,20.61
2019-05-26T23:26:34.865Z,20.54
2019-05-26T23:29:04.236Z,20.54
2019-05-26T23:31:33.548Z,20.54
2019-05-26T23:34:02.897Z,20.57
2019-05-26T23:36:32.320Z,20.56
2019-05-26T23:39:01.905Z,20.49
2019-05-26T23:41:34.603Z,20.46
2019-05-26T23:44:03.902Z,20.45
2019-05-26T23:46:33.245Z,20.44
2019-05-26T23:49:02.555Z,20.41
2019-05-26T23:51:31.870Z,20.39
2019-05-26T23:54:01.223Z,20.40
2019-05-26T23:56:30.629Z,20.43
2019-05-26T23:58:59.942Z,20.47
